Time;durP1;ratioP1;P1;durP2;ratioP2;P2;SDS_P1;SDS_P2;PMS_P1;PMS_P2;Temp;Humidity;BMP_temperature;BMP_pressure;BME280_temperature;BME280_humidity;BME280_pressure;Samples;Min_cycle;Max_cycle;Signal;HPM_P1;HPM_P2
2021/08/14 00:01:20;;;;;;;6.63;3.57;;;17.70;99.90;;;;;;4986467;28;20239;-62
2021/08/14 00:03:50;;;;;;;9.33;3.97;;;17.70;99.90;;;;;;4985702;28;20317;-62
2021/08/14 00:06:18;;;;;;;7.97;3.60;;;17.60;99.90;;;;;;4984769;28;20865;-63
2021/08/14 00:08:46;;;;;;;9.57;3.63;;;17.60;99.90;;;;;;4984497;28;20246;-62
2021/08/14 00:11:14;;;;;;;9.33;3.57;;;17.60;99.90;;;;;;4986633;28;20322;-61
2021/08/14 00:13:42;;;;;;;7.57;3.30;;;17.60;99.90;;;;;;4986375;28;20255;-62
2021/08/14 00:16:11;;;;;;;10.33;3.30;;;17.50;99.90;;;;;;5005853;28;20235;-62
2021/08/14 00:18:39;;;;;;;12.37;4.07;;;17.50;99.90;;;;;;5004375;28;20678;-62
2021/08/14 00:21:08;;;;;;;10.70;3.73;;;17.50;99.90;;;;;;5005784;28;20235;-63
2021/08/14 00:23:38;;;;;;;8.40;3.80;;;17.60;99.90;;;;;;5005196;28;20244;-62
2021/08/14 00:26:06;;;;;;;11.73;3.80;;;17.50;99.90;;;;;;5006081;28;20242;-61
2021/08/14 00:28:34;;;;;;;6.87;3.27;;;17.50;99.90;;;;;;5005300;28;20321;-62
2021/08/14 00:31:02;;;;;;;8.73;3.80;;;17.40;99.90;;;;;;5005832;28;20241;-62
2021/08/14 00:33:31;;;;;;;9.97;3.90;;;17.40;99.90;;;;;;5004722;28;20234;-61
2021/08/14 00:35:59;;;;;;;8.23;3.63;;;17.40;99.90;;;;;;5005511;28;20241;-62
2021/08/14 00:38:32;;;;;;;9.57;4.53;;;17.30;99.90;;;;;;5004981;28;20238;-62
2021/08/14 00:41:00;;;;;;;7.20;3.23;;;17.30;99.90;;;;;;5005858;28;20235;-62
2021/08/14 00:43:28;;;;;;;10.03;3.50;;;17.30;99.90;;;;;;5004590;28;20253;-61
2021/08/14 00:46:00;;;;;;;10.40;4.13;;;17.20;99.90;;;;;;5007247;28;20242;-61
2021/08/14 00:48:36;;;;;;;10.47;4.40;;;17.20;99.90;;;;;;5006209;28;20241;-61
2021/08/14 00:51:04;;;;;;;8.50;3.83;;;17.20;99.90;;;;;;5009289;28;20769;-62
2021/08/14 00:53:34;;;;;;;7.27;3.50;;;17.20;99.90;;;;;;5008803;28;20714;-63
2021/08/14 00:56:03;;;;;;;6.93;3.50;;;17.20;99.90;;;;;;5009252;28;20518;-61
2021/08/14 00:58:32;;;;;;;6.70;3.47;;;17.20;99.90;;;;;;5008565;28;20245;-62
2021/08/14 01:01:00;;;;;;;9.03;4.17;;;17.20;99.90;;;;;;5008779;28;20246;-63
2021/08/14 01:03:29;;;;;;;9.93;3.47;;;17.20;99.90;;;;;;5008299;28;20727;-62
2021/08/14 01:05:57;;;;;;;7.17;3.60;;;17.20;99.90;;;;;;5009125;28;20244;-61
2021/08/14 01:08:25;;;;;;;11.87;3.70;;;17.10;99.90;;;;;;5007941;28;20252;-62
2021/08/14 01:10:55;;;;;;;9.00;4.03;;;17.10;99.90;;;;;;5008715;28;20314;-62
2021/08/14 01:13:23;;;;;;;8.43;3.83;;;17.10;99.90;;;;;;5007133;28;20234;-62
2021/08/14 01:15:52;;;;;;;10.20;4.10;;;17.10;99.90;;;;;;5008910;28;20820;-62
2021/08/14 01:18:21;;;;;;;6.33;3.20;;;17.10;99.90;;;;;;5008530;28;20261;-63
2021/08/14 01:20:49;;;;;;;11.13;3.90;;;17.10;99.90;;;;;;5007300;28;20256;-64
2021/08/14 01:23:18;;;;;;;8.53;3.63;;;17.00;99.90;;;;;;5003370;28;20583;-61
2021/08/14 01:25:46;;;;;;;10.20;3.80;;;17.00;99.90;;;;;;5008110;28;20241;-62
2021/08/14 01:28:16;;;;;;;7.53;3.80;;;17.00;99.90;;;;;;5008187;28;20610;-62
2021/08/14 01:30:44;;;;;;;11.50;4.23;;;17.00;99.90;;;;;;5003086;28;20248;-61
2021/08/14 01:33:13;;;;;;;7.33;3.20;;;17.00;99.90;;;;;;5008181;28;20257;-61
2021/08/14 01:35:42;;;;;;;7.50;3.73;;;17.00;99.90;;;;;;5008384;28;20237;-62
2021/08/14 01:38:10;;;;;;;7.30;3.57;;;16.90;99.90;;;;;;5007355;28;20312;-61
2021/08/14 01:40:39;;;;;;;10.10;3.70;;;16.90;99.90;;;;;;5008081;28;20328;-61
2021/08/14 01:43:07;;;;;;;9.07;3.67;;;17.00;99.90;;;;;;5007580;28;20313;-61
2021/08/14 01:45:36;;;;;;;10.90;4.00;;;16.90;99.90;;;;;;5008156;28;20644;-63
2021/08/14 01:48:05;;;;;;;8.50;3.50;;;16.90;99.90;;;;;;5000731;28;20239;-62
2021/08/14 01:50:33;;;;;;;10.07;4.30;;;16.90;99.90;;;;;;5016392;28;20258;-62
2021/08/14 01:53:01;;;;;;;9.23;3.83;;;16.80;99.90;;;;;;5007068;28;20228;-63
2021/08/14 01:55:30;;;;;;;8.30;3.70;;;16.90;99.90;;;;;;5007950;28;20242;-63
2021/08/14 01:57:58;;;;;;;10.03;3.37;;;16.80;99.90;;;;;;5006850;28;20233;-62
2021/08/14 02:00:26;;;;;;;10.73;4.17;;;16.90;99.90;;;;;;5006453;28;20225;-63
2021/08/14 02:02:56;;;;;;;9.90;3.80;;;16.90;99.90;;;;;;5007617;28;20760;-62
2021/08/14 02:05:26;;;;;;;9.33;4.37;;;16.80;99.90;;;;;;5007488;28;20662;-63
2021/08/14 02:07:54;;;;;;;7.93;3.60;;;16.80;99.90;;;;;;5007702;28;20244;-62
2021/08/14 02:10:22;;;;;;;9.50;3.97;;;16.80;99.90;;;;;;5007836;28;20242;-62
2021/08/14 02:12:50;;;;;;;11.93;4.20;;;16.80;99.90;;;;;;5006784;28;20238;-62
2021/08/14 02:15:19;;;;;;;9.60;3.87;;;16.80;99.90;;;;;;5000186;28;20437;-62
2021/08/14 02:17:47;;;;;;;9.73;4.30;;;16.70;99.90;;;;;;5007110;28;20730;-62
2021/08/14 02:20:16;;;;;;;9.60;4.47;;;16.70;99.90;;;;;;5007458;28;20369;-62
2021/08/14 02:22:44;;;;;;;9.80;3.90;;;16.70;99.90;;;;;;5001855;28;20240;-63
2021/08/14 02:25:12;;;;;;;8.93;3.97;;;16.70;99.90;;;;;;5007512;28;20316;-63
2021/08/14 02:27:40;;;;;;;11.73;4.43;;;16.70;99.90;;;;;;5007030;28;20241;-63
2021/08/14 02:30:09;;;;;;;6.77;3.80;;;16.70;99.90;;;;;;5007799;28;20626;-62
2021/08/14 02:32:37;;;;;;;9.93;4.20;;;16.70;99.90;;;;;;5006586;28;20234;-62
2021/08/14 02:35:06;;;;;;;10.90;3.90;;;16.70;99.90;;;;;;5006675;28;20299;-61
2021/08/14 02:37:35;;;;;;;10.00;4.10;;;16.70;99.90;;;;;;5006801;28;20253;-61
2021/08/14 02:40:04;;;;;;;8.63;3.90;;;16.70;99.90;;;;;;5007270;28;20265;-62
2021/08/14 02:42:32;;;;;;;11.93;4.23;;;16.70;99.90;;;;;;5006017;28;20233;-62
2021/08/14 02:45:00;;;;;;;7.87;3.83;;;16.70;99.90;;;;;;5005645;28;20253;-61
2021/08/14 02:47:28;;;;;;;10.03;4.53;;;16.70;99.90;;;;;;5006417;28;20237;-61
2021/08/14 02:49:56;;;;;;;9.70;3.67;;;16.60;99.90;;;;;;5007066;28;20245;-61
2021/08/14 02:52:24;;;;;;;11.33;4.40;;;16.60;99.90;;;;;;5006651;28;20233;-62
2021/08/14 02:54:54;;;;;;;9.73;4.47;;;16.60;99.90;;;;;;5006682;28;20264;-62
2021/08/14 02:57:22;;;;;;;8.10;4.00;;;16.60;99.90;;;;;;5006189;28;20237;-64
2021/08/14 02:59:50;;;;;;;10.37;4.07;;;16.50;99.90;;;;;;5006658;28;20657;-61
2021/08/14 03:02:18;;;;;;;9.00;3.97;;;16.50;99.90;;;;;;4998678;28;20239;-62
2021/08/14 03:04:46;;;;;;;7.13;3.70;;;16.50;99.90;;;;;;5006017;28;20422;-61
2021/08/14 03:07:14;;;;;;;7.87;3.67;;;16.50;99.90;;;;;;5006755;28;20708;-62
2021/08/14 03:09:43;;;;;;;8.40;4.13;;;16.50;99.90;;;;;;5006889;28;20268;-61
2021/08/14 03:12:12;;;;;;;11.90;4.77;;;16.50;99.90;;;;;;5005881;28;20229;-62
2021/08/14 03:14:40;;;;;;;10.13;4.27;;;16.50;99.90;;;;;;5006629;28;20320;-61
2021/08/14 03:17:08;;;;;;;10.70;4.37;;;16.50;99.90;;;;;;5006207;28;20233;-61
2021/08/14 03:19:36;;;;;;;9.97;4.20;;;16.50;99.90;;;;;;5006752;28;20238;-62
2021/08/14 03:22:05;;;;;;;12.00;4.30;;;16.50;99.90;;;;;;5005975;28;20256;-62
2021/08/14 03:24:33;;;;;;;12.20;4.60;;;16.50;99.90;;;;;;5005979;28;20662;-63
2021/08/14 03:27:01;;;;;;;12.30;4.20;;;16.50;99.90;;;;;;5005639;28;20233;-62
2021/08/14 03:29:31;;;;;;;9.27;4.23;;;16.40;99.90;;;;;;5006260;28;20244;-61
2021/08/14 03:31:59;;;;;;;10.93;4.30;;;16.40;99.90;;;;;;5006138;28;20236;-61
2021/08/14 03:34:27;;;;;;;12.33;4.40;;;16.40;99.90;;;;;;5005432;28;20316;-62
2021/08/14 03:36:55;;;;;;;9.83;4.30;;;16.40;99.90;;;;;;5005918;28;20701;-62
2021/08/14 03:39:23;;;;;;;10.03;4.50;;;16.40;99.90;;;;;;5006260;28;20237;-62
2021/08/14 03:41:51;;;;;;;10.60;4.33;;;16.40;99.90;;;;;;5005903;28;20233;-62
2021/08/14 03:44:20;;;;;;;12.90;5.10;;;16.40;99.90;;;;;;5007062;28;20257;-61
2021/08/14 03:46:49;;;;;;;10.17;4.50;;;16.50;99.90;;;;;;5005744;28;20241;-61
2021/08/14 03:49:17;;;;;;;10.97;4.70;;;16.40;99.90;;;;;;5002393;28;20701;-62
2021/08/14 03:51:45;;;;;;;13.50;5.10;;;16.40;99.90;;;;;;5005407;28;20237;-63
2021/08/14 03:54:13;;;;;;;11.13;4.43;;;16.40;99.90;;;;;;5006148;28;20261;-61
2021/08/14 03:56:41;;;;;;;10.83;4.83;;;16.40;99.90;;;;;;5006135;28;20302;-62
2021/08/14 03:59:09;;;;;;;13.07;4.67;;;16.40;99.90;;;;;;5006315;28;20316;-62
2021/08/14 04:01:38;;;;;;;10.60;4.53;;;16.40;99.90;;;;;;5005549;28;20236;-63
2021/08/14 04:04:08;;;;;;;11.90;4.90;;;16.40;99.90;;;;;;5005653;28;20678;-62
2021/08/14 04:06:36;;;;;;;10.97;4.93;;;16.40;99.90;;;;;;5005278;28;20241;-61
2021/08/14 04:09:04;;;;;;;10.43;4.53;;;16.40;99.90;;;;;;5006112;28;20624;-61
2021/08/14 04:11:32;;;;;;;11.73;4.63;;;16.40;99.90;;;;;;5005821;28;20733;-61
2021/08/14 04:14:00;;;;;;;13.67;5.30;;;16.40;99.90;;;;;;5005992;28;20275;-61
2021/08/14 04:16:28;;;;;;;10.60;4.33;;;16.40;99.90;;;;;;4985099;28;20226;-61
2021/08/14 04:18:56;;;;;;;11.07;4.67;;;16.30;99.90;;;;;;4986019;28;20233;-61
2021/08/14 04:21:26;;;;;;;9.57;4.67;;;16.30;99.90;;;;;;4988173;28;20233;-62
2021/08/14 04:23:54;;;;;;;10.17;4.70;;;16.40;99.90;;;;;;4987168;28;20289;-61
2021/08/14 04:26:22;;;;;;;13.00;5.53;;;16.40;99.90;;;;;;4982062;28;20234;-61
2021/08/14 04:28:50;;;;;;;11.77;5.40;;;16.40;99.90;;;;;;4989714;28;20779;-62
2021/08/14 04:31:18;;;;;;;13.57;5.07;;;16.40;99.90;;;;;;4991519;28;20737;-61
2021/08/14 04:33:46;;;;;;;12.83;4.90;;;16.30;99.90;;;;;;4989627;28;20337;-62
2021/08/14 04:36:14;;;;;;;9.80;4.60;;;16.30;99.90;;;;;;4987973;28;20238;-61
2021/08/14 04:38:44;;;;;;;11.40;5.63;;;16.30;99.90;;;;;;4989607;28;20856;-61
2021/08/14 04:41:12;;;;;;;11.63;5.67;;;16.30;99.90;;;;;;4989846;28;20636;-62
2021/08/14 04:43:40;;;;;;;15.03;5.17;;;16.30;99.90;;;;;;4988922;28;20694;-63
2021/08/14 04:46:08;;;;;;;16.60;5.60;;;16.40;99.90;;;;;;4989271;28;20249;-61
2021/08/14 04:48:36;;;;;;;13.00;5.50;;;16.40;99.90;;;;;;4989491;28;20241;-61
2021/08/14 04:51:04;;;;;;;11.40;5.33;;;16.30;99.90;;;;;;4989864;28;21198;-61
2021/08/14 04:53:33;;;;;;;14.73;5.00;;;16.40;99.90;;;;;;5003485;28;20659;-61
2021/08/14 04:56:02;;;;;;;12.40;5.27;;;16.40;99.90;;;;;;5008964;28;20233;-62
2021/08/14 04:58:30;;;;;;;11.87;5.07;;;16.40;99.90;;;;;;5007358;28;20326;-61
2021/08/14 05:01:16;;;;;;;10.69;4.59;;;16.50;99.90;;;;;;1905173;28;10022750;-61
2021/08/14 05:03:44;;;;;;;11.93;5.53;;;16.40;99.90;;;;;;4643642;28;10000903;-62
2021/08/14 05:06:12;;;;;;;12.93;5.63;;;16.40;99.90;;;;;;4989745;28;20230;-62
2021/08/14 05:08:41;;;;;;;12.87;5.50;;;16.50;99.90;;;;;;4987029;28;20254;-62
2021/08/14 05:11:10;;;;;;;11.33;5.40;;;16.50;99.90;;;;;;4989385;28;20587;-62
2021/08/14 05:13:38;;;;;;;13.27;5.37;;;16.50;99.90;;;;;;4995897;28;20256;-61
2021/08/14 05:16:06;;;;;;;13.27;5.30;;;16.50;99.90;;;;;;5008649;28;20633;-61
2021/08/14 05:18:34;;;;;;;10.63;5.17;;;16.50;99.90;;;;;;5008054;28;20225;-61
2021/08/14 05:21:02;;;;;;;14.60;5.13;;;16.50;99.90;;;;;;5008693;28;20244;-62
2021/08/14 05:23:30;;;;;;;12.93;5.03;;;16.50;99.90;;;;;;5005054;28;20704;-62
2021/08/14 05:25:58;;;;;;;12.53;5.73;;;16.60;99.90;;;;;;5008673;28;20232;-61
2021/08/14 05:28:28;;;;;;;12.40;5.23;;;16.60;99.90;;;;;;5008437;28;20265;-61
2021/08/14 05:30:56;;;;;;;11.40;5.13;;;16.70;99.90;;;;;;5008233;28;20236;-61
2021/08/14 05:33:24;;;;;;;10.47;4.73;;;16.60;99.90;;;;;;5007623;28;20238;-62
2021/08/14 05:35:52;;;;;;;12.67;4.60;;;16.70;99.90;;;;;;5008303;28;20237;-61
2021/08/14 05:38:20;;;;;;;11.80;5.00;;;16.70;99.90;;;;;;5007966;28;20768;-62
2021/08/14 05:40:48;;;;;;;12.33;5.10;;;16.80;99.90;;;;;;5006617;28;20240;-61
2021/08/14 05:43:16;;;;;;;10.97;5.07;;;16.80;99.90;;;;;;5001623;28;20264;-61
2021/08/14 05:45:46;;;;;;;11.00;4.70;;;16.80;99.90;;;;;;5007262;28;20574;-62
2021/08/14 05:48:14;;;;;;;12.83;5.27;;;16.90;99.90;;;;;;5002799;28;20233;-62
2021/08/14 05:50:42;;;;;;;13.77;4.90;;;17.00;99.90;;;;;;5006316;28;20244;-61
2021/08/14 05:53:10;;;;;;;13.10;5.03;;;17.00;99.90;;;;;;5006145;28;20237;-61
2021/08/14 05:55:38;;;;;;;11.53;4.90;;;17.00;99.90;;;;;;5006664;28;20229;-62
2021/08/14 05:58:06;;;;;;;13.80;4.67;;;17.10;99.90;;;;;;5005929;28;20247;-62
2021/08/14 06:00:34;;;;;;;12.63;4.80;;;17.20;99.90;;;;;;5005591;28;20645;-61
2021/08/14 06:03:04;;;;;;;10.27;4.90;;;17.30;99.90;;;;;;5005734;28;20244;-61
2021/08/14 06:05:32;;;;;;;15.23;5.40;;;17.30;99.90;;;;;;5006567;28;20237;-62
2021/08/14 06:08:01;;;;;;;12.93;4.60;;;17.30;99.90;;;;;;5006070;28;20267;-61
2021/08/14 06:10:29;;;;;;;11.13;4.70;;;17.40;99.90;;;;;;5005461;28;20575;-62
2021/08/14 06:12:57;;;;;;;9.37;4.47;;;17.40;99.90;;;;;;5005560;28;20710;-62
2021/08/14 06:15:25;;;;;;;10.97;4.40;;;17.50;99.90;;;;;;5005544;28;20234;-63
2021/08/14 06:17:54;;;;;;;13.73;4.80;;;17.70;99.90;;;;;;5005814;28;20260;-62
2021/08/14 06:20:24;;;;;;;10.83;4.43;;;17.70;99.90;;;;;;5005491;28;20234;-61
2021/08/14 06:22:52;;;;;;;9.90;4.90;;;17.80;99.90;;;;;;5005576;28;20716;-62
2021/08/14 06:25:21;;;;;;;10.13;4.43;;;17.80;99.90;;;;;;5006059;28;20528;-62
2021/08/14 06:27:49;;;;;;;11.83;4.97;;;18.00;99.90;;;;;;5005459;28;20248;-63
2021/08/14 06:30:17;;;;;;;11.30;4.50;;;18.10;99.90;;;;;;4997777;28;20642;-62
2021/08/14 06:32:45;;;;;;;9.40;4.17;;;18.30;99.90;;;;;;5005479;28;20363;-63
2021/08/14 06:35:13;;;;;;;12.23;4.53;;;18.40;99.90;;;;;;4990199;28;20222;-62
2021/08/14 06:37:44;;;;;;;10.97;3.83;;;18.60;99.90;;;;;;4993430;28;20760;-62
2021/08/14 06:40:13;;;;;;;13.27;4.70;;;18.60;99.90;;;;;;5004249;28;20356;-62
2021/08/14 06:42:41;;;;;;;11.97;4.63;;;18.60;99.90;;;;;;5004743;28;20239;-61
2021/08/14 06:45:10;;;;;;;10.93;4.93;;;18.60;99.90;;;;;;5005123;28;20274;-62
2021/08/14 06:47:39;;;;;;;8.87;4.00;;;18.60;99.90;;;;;;5005432;28;20563;-61
2021/08/14 06:50:12;;;;;;;7.90;3.70;;;18.80;99.90;;;;;;5006289;28;20679;-62
2021/08/14 06:52:40;;;;;;;12.03;4.03;;;18.90;99.90;;;;;;5006050;28;20239;-62
2021/08/14 06:55:09;;;;;;;11.97;4.60;;;19.20;99.90;;;;;;5006707;28;20672;-62
2021/08/14 06:57:38;;;;;;;9.10;4.27;;;19.20;99.90;;;;;;5006587;28;20242;-61
2021/08/14 07:00:07;;;;;;;11.37;4.20;;;19.30;99.90;;;;;;5006915;28;20252;-62
2021/08/14 07:02:35;;;;;;;17.17;4.40;;;19.40;99.90;;;;;;5010311;28;20249;-62
2021/08/14 07:05:04;;;;;;;14.30;4.23;;;19.40;99.90;;;;;;5006710;28;20243;-62
2021/08/14 07:07:32;;;;;;;13.00;5.13;;;19.40;99.90;;;;;;5006343;28;20263;-61
2021/08/14 07:10:02;;;;;;;11.57;4.67;;;19.40;99.90;;;;;;5006731;28;20263;-61
2021/08/14 07:12:32;;;;;;;15.40;5.27;;;19.40;99.90;;;;;;5005527;28;20239;-62
2021/08/14 07:15:00;;;;;;;13.10;4.50;;;19.50;99.90;;;;;;5006495;28;20286;-63
2021/08/14 07:17:28;;;;;;;10.53;4.43;;;19.70;99.90;;;;;;5006248;28;20700;-62
2021/08/14 07:19:56;;;;;;;14.03;5.00;;;19.90;99.90;;;;;;5005966;28;20264;-62
2021/08/14 07:22:25;;;;;;;14.40;4.00;;;20.20;99.90;;;;;;5005485;28;20708;-62
2021/08/14 07:24:53;;;;;;;11.10;4.30;;;20.50;99.90;;;;;;5006208;28;20268;-63
2021/08/14 07:27:21;;;;;;;10.40;4.23;;;20.80;99.90;;;;;;5006220;28;20584;-62
2021/08/14 07:29:51;;;;;;;16.30;4.83;;;21.10;99.90;;;;;;5006398;28;20232;-61
2021/08/14 07:32:19;;;;;;;10.23;4.17;;;21.20;99.90;;;;;;5003491;28;20229;-62
2021/08/14 07:34:47;;;;;;;10.40;4.00;;;21.30;99.90;;;;;;5005893;28;20241;-62
2021/08/14 07:37:15;;;;;;;13.73;4.40;;;21.50;99.90;;;;;;5006094;28;20628;-62
2021/08/14 07:39:43;;;;;;;13.30;4.43;;;21.90;99.90;;;;;;5006863;28;20236;-62
2021/08/14 07:42:11;;;;;;;14.27;4.53;;;21.90;99.90;;;;;;5005292;28;20332;-62
2021/08/14 07:44:40;;;;;;;9.90;4.10;;;22.00;99.90;;;;;;5004615;28;20236;-61
2021/08/14 07:47:17;;;;;;;14.20;4.70;;;22.10;99.90;;;;;;5005122;28;20290;-64
2021/08/14 07:49:45;;;;;;;12.23;4.40;;;22.20;99.90;;;;;;5006366;28;20244;-63
2021/08/14 07:52:13;;;;;;;17.53;4.13;;;22.30;99.90;;;;;;5005517;28;20236;-62
2021/08/14 07:54:41;;;;;;;12.23;4.87;;;22.30;99.90;;;;;;5005709;28;20586;-63
2021/08/14 07:57:11;;;;;;;11.43;4.67;;;22.50;99.90;;;;;;5009397;28;20244;-62
2021/08/14 07:59:39;;;;;;;13.43;4.30;;;22.80;99.90;;;;;;5009558;28;20240;-62
2021/08/14 08:02:10;;;;;;;12.03;4.27;;;23.00;99.90;;;;;;5009647;28;20336;-64
2021/08/14 08:04:40;;;;;;;15.10;4.87;;;22.90;99.90;;;;;;5006632;28;20232;-63
2021/08/14 08:07:08;;;;;;;13.23;4.90;;;22.80;99.90;;;;;;5006543;28;20256;-62
2021/08/14 08:09:36;;;;;;;14.03;4.50;;;22.90;99.90;;;;;;5006584;28;20274;-62
2021/08/14 08:12:05;;;;;;;12.83;4.10;;;23.10;99.90;;;;;;5007975;28;20261;-63
2021/08/14 08:14:33;;;;;;;11.53;4.30;;;23.00;99.90;;;;;;5007364;28;20244;-62
2021/08/14 08:17:04;;;;;;;13.27;4.63;;;22.80;99.90;;;;;;5008292;28;20594;-64
2021/08/14 08:19:32;;;;;;;16.73;4.77;;;22.80;99.90;;;;;;5009074;28;20302;-64
2021/08/14 08:22:02;;;;;;;13.47;4.50;;;22.60;99.90;;;;;;5009424;28;20248;-62
2021/08/14 08:24:30;;;;;;;13.20;5.27;;;22.20;99.90;;;;;;5008379;28;20320;-64
2021/08/14 08:26:58;;;;;;;13.53;4.73;;;21.90;99.90;;;;;;5009495;28;20256;-63
2021/08/14 08:29:27;;;;;;;14.63;4.97;;;22.10;99.90;;;;;;5009725;28;20315;-63
2021/08/14 08:31:55;;;;;;;12.03;4.80;;;22.10;99.90;;;;;;5009518;28;20728;-62
2021/08/14 08:34:24;;;;;;;14.63;4.67;;;22.20;99.90;;;;;;5008830;28;20283;-62
2021/08/14 08:36:53;;;;;;;14.70;4.70;;;22.40;99.90;;;;;;5009110;28;20240;-64
2021/08/14 08:39:22;;;;;;;10.57;4.47;;;22.80;99.90;;;;;;5009832;28;20534;-63
2021/08/14 08:41:51;;;;;;;11.30;4.40;;;23.10;99.90;;;;;;5008992;28;20225;-64
2021/08/14 08:44:20;;;;;;;14.70;4.37;;;23.40;99.90;;;;;;5003408;28;20640;-63
2021/08/14 08:46:48;;;;;;;13.73;4.57;;;23.70;99.90;;;;;;5008385;28;20249;-63
2021/08/14 08:49:18;;;;;;;12.30;4.90;;;23.60;99.90;;;;;;5009412;28;20785;-62
2021/08/14 08:51:48;;;;;;;13.97;4.70;;;23.60;99.90;;;;;;5008227;28;20360;-64
2021/08/14 08:54:18;;;;;;;12.80;4.37;;;23.60;99.90;;;;;;5008271;28;20225;-63
2021/08/14 08:56:48;;;;;;;13.47;4.57;;;23.40;99.90;;;;;;4990237;28;20328;-64
2021/08/14 08:59:16;;;;;;;12.37;4.83;;;23.20;99.90;;;;;;4989895;28;20233;-63
2021/08/14 09:01:44;;;;;;;12.97;4.83;;;23.30;99.90;;;;;;5008921;28;21028;-63
2021/08/14 09:04:24;;;;;;;13.57;4.57;;;23.40;99.90;;;;;;5000743;28;20272;-62
2021/08/14 09:06:52;;;;;;;14.40;4.97;;;23.40;99.90;;;;;;4988099;28;20245;-63
2021/08/14 09:09:27;;;;;;;16.10;4.73;;;23.30;99.90;;;;;;4989030;28;20772;-63
2021/08/14 09:12:00;;;;;;;13.07;4.57;;;23.50;99.90;;;;;;4988872;28;20237;-64
2021/08/14 09:14:29;;;;;;;13.47;4.87;;;23.60;99.90;;;;;;4988508;28;20264;-64
2021/08/14 09:17:08;;;;;;;10.47;4.30;;;23.30;99.90;;;;;;4986617;28;20736;-64
2021/08/14 09:19:37;;;;;;;12.17;4.43;;;23.50;99.90;;;;;;4983799;28;21229;-65
2021/08/14 09:22:15;;;;;;;12.10;4.50;;;23.80;99.90;;;;;;4988346;28;20960;-65
2021/08/14 09:24:44;;;;;;;14.17;4.20;;;23.90;99.90;;;;;;4988578;28;20646;-66
2021/08/14 09:27:15;;;;;;;15.13;5.10;;;23.90;99.90;;;;;;4987970;28;20241;-65
2021/08/14 09:29:46;;;;;;;12.57;5.07;;;23.70;99.90;;;;;;4988034;28;20317;-65
2021/08/14 09:32:19;;;;;;;13.20;4.33;;;23.90;99.90;;;;;;5007194;28;20602;-65
2021/08/14 09:34:47;;;;;;;13.70;4.53;;;24.00;99.90;;;;;;4977213;28;20275;-65
2021/08/14 09:37:18;;;;;;;12.60;4.37;;;24.30;99.90;;;;;;4993723;28;20864;-66
2021/08/14 09:39:56;;;;;;;14.00;4.70;;;24.10;99.90;;;;;;4994305;28;20236;-66
2021/08/14 09:42:27;;;;;;;8.83;4.17;;;23.90;99.90;;;;;;4976198;28;21273;-65
2021/08/14 09:45:17;;;;;;;13.03;4.77;;;23.80;99.90;;;;;;4992615;28;20334;-65
2021/08/14 09:47:48;;;;;;;11.93;4.37;;;23.80;99.90;;;;;;4987893;28;20241;-66
2021/08/14 09:50:16;;;;;;;10.33;4.37;;;23.80;99.90;;;;;;4990757;28;20319;-65
2021/08/14 09:52:46;;;;;;;13.00;4.60;;;23.70;99.90;;;;;;4991139;28;20237;-66
2021/08/14 09:55:23;;;;;;;11.80;4.50;;;23.50;99.90;;;;;;4984368;28;20249;-66
2021/08/14 09:58:01;;;;;;;10.20;3.97;;;23.50;99.90;;;;;;4972887;28;20235;-66
2021/08/14 10:00:30;;;;;;;13.40;4.73;;;23.50;99.90;;;;;;4968898;28;20912;-66
2021/08/14 10:03:00;;;;;;;11.60;4.40;;;23.60;99.90;;;;;;4972602;28;20249;-66
2021/08/14 10:05:31;;;;;;;14.33;4.73;;;23.70;99.90;;;;;;4969349;28;20254;-66
2021/08/14 10:08:00;;;;;;;15.67;4.63;;;23.60;99.90;;;;;;4972492;28;20572;-66
2021/08/14 10:10:29;;;;;;;12.93;4.17;;;23.60;99.90;;;;;;4969327;28;20763;-67
2021/08/14 10:12:58;;;;;;;12.43;4.53;;;23.60;99.90;;;;;;4972351;28;20239;-66
2021/08/14 10:15:29;;;;;;;13.53;4.33;;;23.40;99.90;;;;;;4971910;28;20301;-65
2021/08/14 10:17:57;;;;;;;10.33;4.37;;;23.50;99.90;;;;;;4972038;28;20520;-66
2021/08/14 10:20:25;;;;;;;10.90;4.30;;;24.00;99.90;;;;;;4970098;28;20238;-66
2021/08/14 10:22:59;;;;;;;12.43;4.90;;;23.90;99.90;;;;;;4972006;28;20707;-66
2021/08/14 10:25:29;;;;;;;8.50;3.87;;;24.00;99.90;;;;;;4971391;28;20269;-66
2021/08/14 10:27:59;;;;;;;12.50;4.20;;;24.10;99.90;;;;;;4972714;28;20601;-65
2021/08/14 10:30:44;;;;;;;9.77;4.07;;;24.10;99.90;;;;;;4968911;28;20335;-66
2021/08/14 10:33:37;;;;;;;10.70;4.10;;;24.10;99.90;;;;;;4971880;28;20303;-65
2021/08/14 10:36:34;;;;;;;11.13;4.40;;;23.90;99.90;;;;;;4971911;28;20773;-66
2021/08/14 10:39:17;;;;;;;13.87;4.47;;;23.60;99.90;;;;;;4972527;28;20617;-65
2021/08/14 10:41:49;;;;;;;13.00;4.30;;;23.50;99.90;;;;;;4984973;28;20340;-66
2021/08/14 10:44:37;;;;;;;14.63;4.50;;;23.50;99.90;;;;;;4974501;28;20259;-66
2021/08/14 10:47:27;;;;;;;13.57;4.00;;;23.50;99.90;;;;;;4973267;28;20572;-66
2021/08/14 10:49:55;;;;;;;10.27;3.90;;;23.70;99.90;;;;;;4972582;28;20271;-65
2021/08/14 10:52:33;;;;;;;13.07;4.27;;;23.80;99.90;;;;;;4968419;28;20489;-64
2021/08/14 10:55:13;;;;;;;14.67;5.10;;;23.80;99.90;;;;;;4972385;28;20782;-66
2021/08/14 10:57:44;;;;;;;12.07;4.30;;;23.80;99.90;;;;;;4972642;28;20654;-66
2021/08/14 11:00:29;;;;;;;9.93;3.90;;;23.60;99.90;;;;;;4971044;28;20243;-65
2021/08/14 11:03:04;;;;;;;7.50;3.77;;;23.70;99.90;;;;;;4972367;28;20341;-66
2021/08/14 11:05:33;;;;;;;9.90;4.10;;;23.70;99.90;;;;;;4972216;28;20235;-66
2021/08/14 11:08:03;;;;;;;14.20;4.60;;;23.50;99.90;;;;;;4972904;28;20263;-65
2021/08/14 11:10:36;;;;;;;11.80;4.40;;;23.10;99.90;;;;;;4968826;28;20238;-65
2021/08/14 11:13:51;;;;;;;10.27;4.50;;;23.00;99.90;;;;;;4972544;28;20655;-66
2021/08/14 11:16:58;;;;;;;11.70;4.63;;;23.20;99.90;;;;;;4991916;28;20284;-66
2021/08/14 11:19:43;;;;;;;11.10;4.70;;;23.50;99.90;;;;;;4992806;28;20356;-66
2021/08/14 11:22:25;;;;;;;12.30;4.40;;;23.70;99.90;;;;;;4987417;28;20349;-66
2021/08/14 11:24:55;;;;;;;11.80;4.07;;;23.70;99.90;;;;;;4990558;28;20234;-65
2021/08/14 11:27:26;;;;;;;9.47;4.20;;;24.00;99.90;;;;;;4991621;28;20732;-66
2021/08/14 11:29:56;;;;;;;12.53;3.97;;;24.30;99.90;;;;;;4992844;28;20269;-66
2021/08/14 11:32:25;;;;;;;12.17;3.90;;;24.50;99.90;;;;;;4987319;28;20697;-65
2021/08/14 11:34:56;;;;;;;8.33;3.67;;;24.60;99.90;;;;;;4991740;28;20235;-66
2021/08/14 11:37:27;;;;;;;11.60;4.50;;;24.70;99.90;;;;;;4992874;28;20238;-65
2021/08/14 11:39:57;;;;;;;12.83;4.30;;;24.80;99.90;;;;;;4992692;28;20254;-66
2021/08/14 11:42:27;;;;;;;13.13;4.47;;;24.60;99.90;;;;;;4986462;28;20241;-66
2021/08/14 11:44:56;;;;;;;11.80;4.10;;;24.40;99.90;;;;;;4991953;28;20685;-65
2021/08/14 11:47:33;;;;;;;9.40;3.83;;;24.30;99.90;;;;;;4992860;28;20242;-65
2021/08/14 11:50:05;;;;;;;7.20;3.47;;;24.40;99.90;;;;;;4993022;28;20250;-66
2021/08/14 11:52:33;;;;;;;9.27;3.40;;;24.10;99.90;;;;;;4989566;28;20731;-65
2021/08/14 11:55:04;;;;;;;11.40;3.93;;;23.90;99.90;;;;;;4991967;28;20325;-65
2021/08/14 11:57:35;;;;;;;10.63;4.07;;;23.80;99.90;;;;;;4992312;28;20265;-66
2021/08/14 12:00:19;;;;;;;7.10;3.40;;;23.80;99.90;;;;;;4992811;28;20611;-66
2021/08/14 12:02:49;;;;;;;7.70;3.70;;;23.90;99.90;;;;;;4990496;28;20257;-66
2021/08/14 12:05:25;;;;;;;9.63;4.00;;;23.90;99.90;;;;;;4991021;28;20257;-66
2021/08/14 12:07:53;;;;;;;10.20;3.97;;;23.80;99.90;;;;;;4992512;28;20240;-65
2021/08/14 12:10:22;;;;;;;11.17;4.10;;;23.80;99.90;;;;;;4989438;28;20895;-66
2021/08/14 12:13:03;;;;;;;6.83;3.60;;;24.00;99.90;;;;;;4991275;28;20229;-65
2021/08/14 12:15:39;;;;;;;10.20;3.90;;;24.40;99.90;;;;;;4991852;28;20242;-66
2021/08/14 12:18:11;;;;;;;9.83;3.53;;;24.70;99.90;;;;;;4992844;28;20246;-64
2021/08/14 12:20:43;;;;;;;7.77;3.23;;;25.10;99.90;;;;;;4988585;28;20349;-65
2021/08/14 12:23:25;;;;;;;9.07;3.67;;;25.10;99.90;;;;;;4991840;28;20238;-66
2021/08/14 12:25:55;;;;;;;6.67;3.10;;;25.20;99.90;;;;;;4991640;28;20339;-65
2021/08/14 12:28:27;;;;;;;6.77;3.30;;;25.20;99.90;;;;;;4991939;28;20695;-66
2021/08/14 12:30:57;;;;;;;8.83;3.57;;;25.20;99.90;;;;;;4988661;28;20263;-66
2021/08/14 12:33:27;;;;;;;8.37;3.37;;;25.20;99.90;;;;;;4992496;28;20383;-64
2021/08/14 12:36:01;;;;;;;8.47;3.60;;;25.10;99.90;;;;;;4991845;28;20587;-65
2021/08/14 12:38:30;;;;;;;9.43;3.50;;;25.20;99.90;;;;;;4992192;28;20243;-66
2021/08/14 12:41:12;;;;;;;9.27;3.30;;;25.40;99.90;;;;;;4988101;28;20247;-65
2021/08/14 12:43:44;;;;;;;10.20;3.70;;;25.40;99.90;;;;;;4996301;28;20267;-65
2021/08/14 12:46:19;;;;;;;6.23;2.90;;;25.30;99.90;;;;;;4994916;28;20293;-66
2021/08/14 12:49:17;;;;;;;8.73;3.47;;;25.30;99.90;;;;;;4991252;28;20255;-66
2021/08/14 12:51:54;;;;;;;6.90;3.13;;;25.30;99.90;;;;;;4991826;28;20314;-65
2021/08/14 12:54:22;;;;;;;7.27;3.33;;;25.40;99.90;;;;;;4995919;28;20335;-65
2021/08/14 12:56:54;;;;;;;6.20;3.20;;;25.40;99.90;;;;;;4994930;28;20251;-66